sensor_id;sensor_type;location;lat;lon;timestamp;pressure;altitude;pressure_sealevel;temperature;humidity
21594;BME280;10959;51.328;7.322;2023-05-29T00:02:25;74251.38;;;-147.06;44.91
21594;BME280;10959;51.328;7.322;2023-05-29T00:04:51;74257.53;;;-147.06;45.08
21594;BME280;10959;51.328;7.322;2023-05-29T00:07:18;74247.28;;;-147.06;44.77
21594;BME280;10959;51.328;7.322;2023-05-29T00:09:45;74257.53;;;-147.06;44.92
21594;BME280;10959;51.328;7.322;2023-05-29T00:12:11;74278.03;;;-147.06;45.32
21594;BME280;10959;51.328;7.322;2023-05-29T00:14:40;74269.81;;;-147.06;45.04
21594;BME280;10959;51.328;7.322;2023-05-29T00:17:06;74282.13;;;-147.06;45.45
21594;BME280;10959;51.328;7.322;2023-05-29T00:19:33;74282.13;;;-147.06;45.26
21594;BME280;10959;51.328;7.322;2023-05-29T00:22:00;74284.16;;;-147.06;45.27
21594;BME280;10959;51.328;7.322;2023-05-29T00:24:27;74282.13;;;-147.06;45.41
21594;BME280;10959;51.328;7.322;2023-05-29T00:26:53;74280.06;;;-147.06;45.30
21594;BME280;10959;51.328;7.322;2023-05-29T00:29:19;74282.13;;;-147.06;45.35
21594;BME280;10959;51.328;7.322;2023-05-29T00:31:48;74275.97;;;-147.06;45.41
21594;BME280;10959;51.328;7.322;2023-05-29T00:34:15;74278.03;;;-147.06;45.43
21594;BME280;10959;51.328;7.322;2023-05-29T00:36:41;74302.59;;;-147.06;45.91
21594;BME280;10959;51.328;7.322;2023-05-29T00:39:08;74292.38;;;-147.06;45.86
21594;BME280;10959;51.328;7.322;2023-05-29T00:41:35;74308.75;;;-147.06;46.10
21594;BME280;10959;51.328;7.322;2023-05-29T00:44:01;74323.09;;;-147.06;46.13
21594;BME280;10959;51.328;7.322;2023-05-29T00:46:30;74319.00;;;-147.06;45.74
21594;BME280;10959;51.328;7.322;2023-05-29T00:48:59;74319.00;;;-147.06;45.86
21594;BME280;10959;51.328;7.322;2023-05-29T00:51:26;74316.94;;;-147.06;46.14
21594;BME280;10959;51.328;7.322;2023-05-29T00:53:54;74314.91;;;-147.06;45.96
21594;BME280;10959;51.328;7.322;2023-05-29T00:56:21;74312.84;;;-147.06;45.97
21594;BME280;10959;51.328;7.322;2023-05-29T00:58:50;74312.84;;;-147.06;45.83
21594;BME280;10959;51.328;7.322;2023-05-29T01:01:18;74314.91;;;-147.06;46.11
21594;BME280;10959;51.328;7.322;2023-05-29T01:03:44;74335.38;;;-147.06;46.32
21594;BME280;10959;51.328;7.322;2023-05-29T01:06:15;74335.38;;;-147.06;46.31
21594;BME280;10959;51.328;7.322;2023-05-29T01:08:41;74347.69;;;-147.06;46.71
21594;BME280;10959;51.328;7.322;2023-05-29T01:11:12;74368.16;;;-147.06;47.23
21594;BME280;10959;51.328;7.322;2023-05-29T01:13:44;74405.03;;;-147.06;47.60
21594;BME280;10959;51.328;7.322;2023-05-29T01:16:14;74409.16;;;-147.06;48.22
21594;BME280;10959;51.328;7.322;2023-05-29T01:18:47;74419.38;;;-147.06;47.80
21594;BME280;10959;51.328;7.322;2023-05-29T01:23:06;74421.44;;;-147.06;47.43
21594;BME280;10959;51.328;7.322;2023-05-29T01:25:46;74423.47;;;-147.06;47.75
21594;BME280;10959;51.328;7.322;2023-05-29T01:28:21;74425.53;;;-147.06;47.61
21594;BME280;10959;51.328;7.322;2023-05-29T01:34:09;74450.13;;;-147.06;48.28
21594;BME280;10959;51.328;7.322;2023-05-29T01:36:35;74446.03;;;-147.06;48.51
21594;BME280;10959;51.328;7.322;2023-05-29T01:39:02;74439.88;;;-147.06;48.15
21594;BME280;10959;51.328;7.322;2023-05-29T01:41:31;74435.78;;;-147.06;48.08
21594;BME280;10959;51.328;7.322;2023-05-29T01:43:59;74454.22;;;-147.06;48.33
21594;BME280;10959;51.328;7.322;2023-05-29T01:46:26;74466.50;;;-147.06;48.87
21594;BME280;10959;51.328;7.322;2023-05-29T01:48:53;74470.59;;;-147.06;48.76
21594;BME280;10959;51.328;7.322;2023-05-29T01:51:20;74470.59;;;-147.06;48.63
21594;BME280;10959;51.328;7.322;2023-05-29T01:53:47;74474.69;;;-147.06;48.87
21594;BME280;10959;51.328;7.322;2023-05-29T01:56:13;74487.00;;;-147.06;48.97
21594;BME280;10959;51.328;7.322;2023-05-29T01:58:40;74482.91;;;-147.06;48.80
21594;BME280;10959;51.328;7.322;2023-05-29T02:01:09;74487.00;;;-147.06;48.92
21594;BME280;10959;51.328;7.322;2023-05-29T02:03:36;74507.47;;;-147.06;49.58
21594;BME280;10959;51.328;7.322;2023-05-29T02:06:02;74544.38;;;-147.06;50.27
21594;BME280;10959;51.328;7.322;2023-05-29T02:08:29;74568.94;;;-147.06;50.92
21594;BME280;10959;51.328;7.322;2023-05-29T02:10:55;74581.25;;;-147.06;50.88
21594;BME280;10959;51.328;7.322;2023-05-29T02:13:22;74585.34;;;-147.06;50.88
21594;BME280;10959;51.328;7.322;2023-05-29T02:15:48;74589.44;;;-147.06;51.07
21594;BME280;10959;51.328;7.322;2023-05-29T02:18:16;74614.03;;;-147.06;51.50
21594;BME280;10959;51.328;7.322;2023-05-29T02:20:44;74628.38;;;-147.06;51.78
21594;BME280;10959;51.328;7.322;2023-05-29T02:23:11;74642.72;;;-147.06;51.83
21594;BME280;10959;51.328;7.322;2023-05-29T02:25:37;74648.84;;;-147.06;51.86
21594;BME280;10959;51.328;7.322;2023-05-29T02:28:04;74638.63;;;-147.06;51.69
21594;BME280;10959;51.328;7.322;2023-05-29T02:30:30;74642.72;;;-147.06;51.44
21594;BME280;10959;51.328;7.322;2023-05-29T02:32:57;74708.28;;;-147.06;52.56
21594;BME280;10959;51.328;7.322;2023-05-29T02:35:24;74716.47;;;-147.06;52.86
21594;BME280;10959;51.328;7.322;2023-05-29T02:37:51;74700.09;;;-147.06;52.33
21594;BME280;10959;51.328;7.322;2023-05-29T02:40:18;74708.28;;;-147.06;52.03
21594;BME280;10959;51.328;7.322;2023-05-29T02:42:46;74732.88;;;-147.06;52.70
21594;BME280;10959;51.328;7.322;2023-05-29T02:45:12;74777.94;;;-147.06;53.46
21594;BME280;10959;51.328;7.322;2023-05-29T02:47:39;74741.06;;;-147.06;52.84
21594;BME280;10959;51.328;7.322;2023-05-29T02:50:06;74743.09;;;-147.06;52.69
21594;BME280;10959;51.328;7.322;2023-05-29T02:52:35;74741.06;;;-147.06;52.61
21594;BME280;10959;51.328;7.322;2023-05-29T02:55:01;74741.06;;;-147.06;52.70
21594;BME280;10959;51.328;7.322;2023-05-29T02:57:29;74739.00;;;-147.06;52.56
21594;BME280;10959;51.328;7.322;2023-05-29T02:59:55;74761.56;;;-147.06;53.04
21594;BME280;10959;51.328;7.322;2023-05-29T03:02:22;74773.84;;;-147.06;53.37
21594;BME280;10959;51.328;7.322;2023-05-29T03:04:48;74773.84;;;-147.06;53.35
21594;BME280;10959;51.328;7.322;2023-05-29T03:07:15;74775.91;;;-147.06;53.49
21594;BME280;10959;51.328;7.322;2023-05-29T03:09:43;74794.34;;;-147.06;53.68
21594;BME280;10959;51.328;7.322;2023-05-29T03:12:09;74818.91;;;-147.06;54.20
21594;BME280;10959;51.328;7.322;2023-05-29T03:14:36;74820.97;;;-147.06;54.36
21594;BME280;10959;51.328;7.322;2023-05-29T03:17:03;74818.91;;;-147.06;54.38
21594;BME280;10959;51.328;7.322;2023-05-29T03:19:30;74806.63;;;-147.06;54.22
21594;BME280;10959;51.328;7.322;2023-05-29T03:21:57;74818.91;;;-147.06;54.38
21594;BME280;10959;51.328;7.322;2023-05-29T03:24:23;74810.72;;;-147.06;54.41
21594;BME280;10959;51.328;7.322;2023-05-29T03:26:51;74810.72;;;-147.06;54.26
21594;BME280;10959;51.328;7.322;2023-05-29T03:29:17;74804.56;;;-147.06;54.38
21594;BME280;10959;51.328;7.322;2023-05-29T03:31:44;74802.53;;;-147.06;54.09
21594;BME280;10959;51.328;7.322;2023-05-29T03:34:10;74806.63;;;-147.06;54.28
21594;BME280;10959;51.328;7.322;2023-05-29T03:36:37;74800.47;;;-147.06;53.86
21594;BME280;10959;51.328;7.322;2023-05-29T03:39:03;74771.78;;;-147.06;53.37
21594;BME280;10959;51.328;7.322;2023-05-29T03:41:30;74777.94;;;-147.06;53.59
21594;BME280;10959;51.328;7.322;2023-05-29T03:43:57;74777.94;;;-147.06;53.58
21594;BME280;10959;51.328;7.322;2023-05-29T03:46:24;74777.94;;;-147.06;53.53
21594;BME280;10959;51.328;7.322;2023-05-29T03:48:52;74784.09;;;-147.06;53.70
21594;BME280;10959;51.328;7.322;2023-05-29T03:51:18;74784.09;;;-147.06;53.65
21594;BME280;10959;51.328;7.322;2023-05-29T03:53:45;74788.19;;;-147.06;53.85
21594;BME280;10959;51.328;7.322;2023-05-29T03:56:11;74808.69;;;-147.06;54.28
21594;BME280;10959;51.328;7.322;2023-05-29T03:58:38;74814.81;;;-147.06;54.06
21594;BME280;10959;51.328;7.322;2023-05-29T04:01:05;74806.63;;;-147.06;54.07
21594;BME280;10959;51.328;7.322;2023-05-29T04:03:32;74823.03;;;-147.06;54.45
21594;BME280;10959;51.328;7.322;2023-05-29T04:05:58;74820.97;;;-147.06;54.38
21594;BME280;10959;51.328;7.322;2023-05-29T04:08:25;74806.63;;;-147.06;54.08
21594;BME280;10959;51.328;7.322;2023-05-29T04:10:51;74802.53;;;-147.06;54.12
21594;BME280;10959;51.328;7.322;2023-05-29T04:13:19;74814.81;;;-147.06;54.37
21594;BME280;10959;51.328;7.322;2023-05-29T04:15:45;74816.88;;;-147.06;54.34
21594;BME280;10959;51.328;7.322;2023-05-29T04:18:13;74810.72;;;-147.06;54.08
21594;BME280;10959;51.328;7.322;2023-05-29T04:20:39;74820.97;;;-147.06;54.30
21594;BME280;10959;51.328;7.322;2023-05-29T04:23:06;74810.72;;;-147.06;54.04
21594;BME280;10959;51.328;7.322;2023-05-29T04:25:32;74818.91;;;-147.06;54.18
21594;BME280;10959;51.328;7.322;2023-05-29T04:27:59;74814.81;;;-147.06;53.95
21594;BME280;10959;51.328;7.322;2023-05-29T04:30:27;74839.41;;;-147.06;54.31
21594;BME280;10959;51.328;7.322;2023-05-29T04:32:54;74880.38;;;-147.06;55.23
21594;BME280;10959;51.328;7.322;2023-05-29T04:35:22;74864.00;;;-147.06;54.73
21594;BME280;10959;51.328;7.322;2023-05-29T04:37:48;74843.50;;;-147.06;54.62
21594;BME280;10959;51.328;7.322;2023-05-29T04:40:15;74849.66;;;-147.06;54.57
21594;BME280;10959;51.328;7.322;2023-05-29T04:42:43;74857.84;;;-147.06;54.64
21594;BME280;10959;51.328;7.322;2023-05-29T04:45:10;74855.81;;;-147.06;55.05
21594;BME280;10959;51.328;7.322;2023-05-29T04:47:37;74849.66;;;-147.06;54.73
21594;BME280;10959;51.328;7.322;2023-05-29T04:50:09;74835.31;;;-147.06;54.49
21594;BME280;10959;51.328;7.322;2023-05-29T04:52:37;74802.53;;;-147.06;53.95
21594;BME280;10959;51.328;7.322;2023-05-29T04:55:04;74818.91;;;-147.06;54.41
21594;BME280;10959;51.328;7.322;2023-05-29T04:57:31;74818.91;;;-147.06;54.04
21594;BME280;10959;51.328;7.322;2023-05-29T04:59:57;74823.03;;;-147.06;54.51
21594;BME280;10959;51.328;7.322;2023-05-29T05:02:24;74827.13;;;-147.06;54.28
21594;BME280;10959;51.328;7.322;2023-05-29T05:04:50;74794.34;;;-147.06;53.76
21594;BME280;10959;51.328;7.322;2023-05-29T05:07:16;74794.34;;;-147.06;53.69
21594;BME280;10959;51.328;7.322;2023-05-29T05:09:44;74806.63;;;-147.06;53.73
21594;BME280;10959;51.328;7.322;2023-05-29T05:12:11;74814.81;;;-147.06;53.72
21594;BME280;10959;51.328;7.322;2023-05-29T05:14:37;74802.53;;;-147.06;53.30
21594;BME280;10959;51.328;7.322;2023-05-29T05:17:04;74810.72;;;-147.06;53.35
21594;BME280;10959;51.328;7.322;2023-05-29T05:19:30;74802.53;;;-147.06;53.28
21594;BME280;10959;51.328;7.322;2023-05-29T05:21:57;74814.81;;;-147.06;53.20
21594;BME280;10959;51.328;7.322;2023-05-29T05:24:23;74818.91;;;-147.06;53.07
21594;BME280;10959;51.328;7.322;2023-05-29T05:26:51;74839.41;;;-147.06;53.50
21594;BME280;10959;51.328;7.322;2023-05-29T05:29:17;74851.72;;;-147.06;53.92
21594;BME280;10959;51.328;7.322;2023-05-29T05:31:44;74806.63;;;-147.06;53.24
21594;BME280;10959;51.328;7.322;2023-05-29T05:34:11;74798.44;;;-147.06;53.30
21594;BME280;10959;51.328;7.322;2023-05-29T05:36:38;74780.00;;;-147.06;53.01
21594;BME280;10959;51.328;7.322;2023-05-29T05:39:05;74769.75;;;-147.06;52.68
21594;BME280;10959;51.328;7.322;2023-05-29T05:41:31;74765.66;;;-147.06;52.70
21594;BME280;10959;51.328;7.322;2023-05-29T05:43:59;74753.34;;;-147.06;52.40
21594;BME280;10959;51.328;7.322;2023-05-29T05:46:25;74745.16;;;-147.06;52.33
21594;BME280;10959;51.328;7.322;2023-05-29T05:48:52;74724.66;;;-147.06;52.19
21594;BME280;10959;51.328;7.322;2023-05-29T05:51:18;74714.41;;;-147.06;52.13
21594;BME280;10959;51.328;7.322;2023-05-29T05:53:44;74691.88;;;-147.06;51.84
21594;BME280;10959;51.328;7.322;2023-05-29T05:56:11;74700.09;;;-147.06;51.57
21594;BME280;10959;51.328;7.322;2023-05-29T05:58:38;74695.97;;;-147.06;51.67
21594;BME280;10959;51.328;7.322;2023-05-29T06:01:05;74648.84;;;-147.06;50.94
21594;BME280;10959;51.328;7.322;2023-05-29T06:03:33;74628.38;;;-147.06;50.51
21594;BME280;10959;51.328;7.322;2023-05-29T06:06:00;74628.38;;;-147.06;50.50
21594;BME280;10959;51.328;7.322;2023-05-29T06:08:27;74601.72;;;-147.06;50.20
21594;BME280;10959;51.328;7.322;2023-05-29T06:10:53;74611.97;;;-147.06;50.14
21594;BME280;10959;51.328;7.322;2023-05-29T06:13:19;74587.38;;;-147.06;49.85
21594;BME280;10959;51.328;7.322;2023-05-29T06:15:46;74579.19;;;-147.06;49.92
21594;BME280;10959;51.328;7.322;2023-05-29T06:18:14;74577.16;;;-147.06;49.77
21594;BME280;10959;51.328;7.322;2023-05-29T06:20:40;74564.84;;;-147.06;49.63
21594;BME280;10959;51.328;7.322;2023-05-29T06:23:07;74536.16;;;-147.06;49.34
21594;BME280;10959;51.328;7.322;2023-05-29T06:25:33;74544.38;;;-147.06;49.28
21594;BME280;10959;51.328;7.322;2023-05-29T06:28:00;74568.94;;;-147.06;49.61
21594;BME280;10959;51.328;7.322;2023-05-29T06:30:27;74536.16;;;-147.06;49.30
21594;BME280;10959;51.328;7.322;2023-05-29T06:32:53;74507.47;;;-147.06;49.16
21594;BME280;10959;51.328;7.322;2023-05-29T06:35:21;74499.28;;;-147.06;48.61
21594;BME280;10959;51.328;7.322;2023-05-29T06:37:48;74462.41;;;-147.06;48.75
21594;BME280;10959;51.328;7.322;2023-05-29T06:40:14;74441.94;;;-147.06;48.31
21594;BME280;10959;51.328;7.322;2023-05-29T06:42:41;74403.00;;;-147.06;48.05
21594;BME280;10959;51.328;7.322;2023-05-29T06:45:10;74390.69;;;-147.06;47.22
21594;BME280;10959;51.328;7.322;2023-05-29T06:47:38;74374.31;;;-147.06;47.27
21594;BME280;10959;51.328;7.322;2023-05-29T06:50:05;74364.06;;;-147.06;47.32
21594;BME280;10959;51.328;7.322;2023-05-29T06:52:33;74337.44;;;-147.06;46.62
21594;BME280;10959;51.328;7.322;2023-05-29T06:55:00;74339.47;;;-147.06;46.10
21594;BME280;10959;51.328;7.322;2023-05-29T06:57:26;74368.16;;;-147.06;46.12
21594;BME280;10959;51.328;7.322;2023-05-29T06:59:52;74433.72;;;-147.06;47.15
21594;BME280;10959;51.328;7.322;2023-05-29T07:02:19;74409.16;;;-147.06;47.02
21594;BME280;10959;51.328;7.322;2023-05-29T07:04:45;74446.03;;;-147.06;47.10
21594;BME280;10959;51.328;7.322;2023-05-29T07:07:12;74460.38;;;-147.06;47.88
21594;BME280;10959;51.328;7.322;2023-05-29T07:09:40;74419.38;;;-147.06;47.78
21594;BME280;10959;51.328;7.322;2023-05-29T07:12:06;74396.84;;;-147.06;47.24
21594;BME280;10959;51.328;7.322;2023-05-29T07:14:33;74425.53;;;-147.06;47.23
21594;BME280;10959;51.328;7.322;2023-05-29T07:16:59;74415.28;;;-147.06;47.45
21594;BME280;10959;51.328;7.322;2023-05-29T07:19:25;74405.03;;;-147.06;47.64
21594;BME280;10959;51.328;7.322;2023-05-29T07:21:53;74345.63;;;-147.06;47.45
21594;BME280;10959;51.328;7.322;2023-05-29T07:24:19;74306.72;;;-147.06;46.74
21594;BME280;10959;51.328;7.322;2023-05-29T07:26:47;74302.59;;;-147.06;45.79
21594;BME280;10959;51.328;7.322;2023-05-29T07:29:13;74286.22;;;-147.06;46.04
21594;BME280;10959;51.328;7.322;2023-05-29T07:31:42;74278.03;;;-147.06;45.78
21594;BME280;10959;51.328;7.322;2023-05-29T07:34:08;74265.72;;;-147.06;45.61
21594;BME280;10959;51.328;7.322;2023-05-29T07:36:35;74237.06;;;-147.06;45.55
21594;BME280;10959;51.328;7.322;2023-05-29T07:39:02;74245.25;;;-147.06;44.90
21594;BME280;10959;51.328;7.322;2023-05-29T07:41:30;74245.25;;;-147.06;44.68
21594;BME280;10959;51.328;7.322;2023-05-29T07:43:58;74230.91;;;-147.06;45.34
21594;BME280;10959;51.328;7.322;2023-05-29T07:46:24;74212.47;;;-147.06;45.08
21594;BME280;10959;51.328;7.322;2023-05-29T07:48:51;74179.69;;;-147.06;44.76
21594;BME280;10959;51.328;7.322;2023-05-29T07:51:17;74179.69;;;-147.06;44.34
21594;BME280;10959;51.328;7.322;2023-05-29T07:53:44;74171.50;;;-147.06;43.95
21594;BME280;10959;51.328;7.322;2023-05-29T07:56:11;74146.91;;;-147.06;44.05
21594;BME280;10959;51.328;7.322;2023-05-29T07:58:38;74151.00;;;-147.06;44.18
21594;BME280;10959;51.328;7.322;2023-05-29T08:01:07;74155.09;;;-147.06;43.97
21594;BME280;10959;51.328;7.322;2023-05-29T08:03:34;74175.59;;;-147.06;43.62
21594;BME280;10959;51.328;7.322;2023-05-29T08:06:00;74163.28;;;-147.06;43.85
21594;BME280;10959;51.328;7.322;2023-05-29T08:08:26;74159.19;;;-147.06;43.63
21594;BME280;10959;51.328;7.322;2023-05-29T08:10:53;74146.91;;;-147.06;43.41
21594;BME280;10959;51.328;7.322;2023-05-29T08:13:20;74110.03;;;-147.06;43.62
21594;BME280;10959;51.328;7.322;2023-05-29T08:15:46;74142.81;;;-147.06;43.16
21594;BME280;10959;51.328;7.322;2023-05-29T08:18:14;74114.13;;;-147.06;43.25
21594;BME280;10959;51.328;7.322;2023-05-29T08:20:40;74097.75;;;-147.06;43.24
21594;BME280;10959;51.328;7.322;2023-05-29T08:23:08;74044.47;;;-147.06;42.75
21594;BME280;10959;51.328;7.322;2023-05-29T08:25:34;74026.03;;;-147.06;42.66
21594;BME280;10959;51.328;7.322;2023-05-29T08:28:00;74060.88;;;-147.06;42.21
21594;BME280;10959;51.328;7.322;2023-05-29T08:30:27;74032.19;;;-147.06;42.49
21594;BME280;10959;51.328;7.322;2023-05-29T08:32:53;73995.31;;;-147.06;42.57
21594;BME280;10959;51.328;7.322;2023-05-29T08:35:21;73995.31;;;-147.06;41.33
21594;BME280;10959;51.328;7.322;2023-05-29T08:37:48;73983.03;;;-147.06;41.81
21594;BME280;10959;51.328;7.322;2023-05-29T08:40:14;73991.22;;;-147.06;41.29
21594;BME280;10959;51.328;7.322;2023-05-29T08:42:46;74056.78;;;-147.06;42.06
21594;BME280;10959;51.328;7.322;2023-05-29T08:45:13;74060.88;;;-147.06;42.39
21594;BME280;10959;51.328;7.322;2023-05-29T08:47:41;74054.72;;;-147.06;42.66
21594;BME280;10959;51.328;7.322;2023-05-29T08:50:08;74003.50;;;-147.06;42.71
21594;BME280;10959;51.328;7.322;2023-05-29T08:52:37;73983.03;;;-147.06;41.78
21594;BME280;10959;51.328;7.322;2023-05-29T08:55:05;74024.00;;;-147.06;41.56
21594;BME280;10959;51.328;7.322;2023-05-29T08:57:32;74028.09;;;-147.06;42.27
21594;BME280;10959;51.328;7.322;2023-05-29T09:00:00;74015.78;;;-147.06;41.85
21594;BME280;10959;51.328;7.322;2023-05-29T09:02:26;73999.41;;;-147.06;41.58
21594;BME280;10959;51.328;7.322;2023-05-29T09:04:53;73950.25;;;-147.06;41.50
21594;BME280;10959;51.328;7.322;2023-05-29T09:07:22;73942.06;;;-147.06;41.38
21594;BME280;10959;51.328;7.322;2023-05-29T09:09:52;73915.41;;;-147.06;41.82
21594;BME280;10959;51.328;7.322;2023-05-29T09:12:19;73884.69;;;-147.06;41.06
21594;BME280;10959;51.328;7.322;2023-05-29T09:14:46;73864.19;;;-147.06;40.73
21594;BME280;10959;51.328;7.322;2023-05-29T09:17:12;73847.81;;;-147.06;40.81
21594;BME280;10959;51.328;7.322;2023-05-29T09:19:40;73847.81;;;-147.06;40.24
21594;BME280;10959;51.328;7.322;2023-05-29T09:22:08;73819.13;;;-147.06;40.82
21594;BME280;10959;51.328;7.322;2023-05-29T09:24:36;73958.44;;;-147.06;40.49
21594;BME280;10959;51.328;7.322;2023-05-29T09:27:05;73987.13;;;-147.06;41.48
21594;BME280;10959;51.328;7.322;2023-05-29T09:29:33;74071.09;;;-147.06;41.92
21594;BME280;10959;51.328;7.322;2023-05-29T09:32:00;74056.78;;;-147.06;42.63
21594;BME280;10959;51.328;7.322;2023-05-29T09:34:30;74019.91;;;-147.06;41.76
21594;BME280;10959;51.328;7.322;2023-05-29T09:37:01;73935.91;;;-147.06;41.89
21594;BME280;10959;51.328;7.322;2023-05-29T09:39:33;73950.25;;;-147.06;40.87
21594;BME280;10959;51.328;7.322;2023-05-29T09:42:00;73927.72;;;-147.06;40.66
21594;BME280;10959;51.328;7.322;2023-05-29T09:44:27;73884.69;;;-147.06;41.12
21594;BME280;10959;51.328;7.322;2023-05-29T09:46:58;73899.03;;;-147.06;40.73
21594;BME280;10959;51.328;7.322;2023-05-29T09:49:25;73872.41;;;-147.06;40.49
21594;BME280;10959;51.328;7.322;2023-05-29T09:51:53;73806.84;;;-147.06;40.21
21594;BME280;10959;51.328;7.322;2023-05-29T09:54:19;73786.38;;;-147.06;39.39
21594;BME280;10959;51.328;7.322;2023-05-29T09:56:47;73794.56;;;-147.06;39.25
21594;BME280;10959;51.328;7.322;2023-05-29T09:59:14;73784.31;;;-147.06;39.63
21594;BME280;10959;51.328;7.322;2023-05-29T10:01:44;73763.81;;;-147.06;39.16
21594;BME280;10959;51.328;7.322;2023-05-29T10:04:11;73743.34;;;-147.06;39.14
21594;BME280;10959;51.328;7.322;2023-05-29T10:06:41;73798.66;;;-147.06;39.20
21594;BME280;10959;51.328;7.322;2023-05-29T10:09:12;73794.56;;;-147.06;39.44
21594;BME280;10959;51.328;7.322;2023-05-29T10:11:43;73761.78;;;-147.06;39.26
21594;BME280;10959;51.328;7.322;2023-05-29T10:14:17;73774.06;;;-147.06;38.63
21594;BME280;10959;51.328;7.322;2023-05-29T10:16:47;73733.09;;;-147.06;39.14
21594;BME280;10959;51.328;7.322;2023-05-29T10:19:18;73745.41;;;-147.06;38.79
21594;BME280;10959;51.328;7.322;2023-05-29T10:21:47;73704.44;;;-147.06;39.20
21594;BME280;10959;51.328;7.322;2023-05-29T10:24:17;73733.09;;;-147.06;37.81
21594;BME280;10959;51.328;7.322;2023-05-29T10:26:47;73749.50;;;-147.06;38.39
21594;BME280;10959;51.328;7.322;2023-05-29T10:29:18;73704.44;;;-147.06;38.91
21594;BME280;10959;51.328;7.322;2023-05-29T10:31:58;73663.47;;;-147.06;39.16
21594;BME280;10959;51.328;7.322;2023-05-29T10:34:31;73655.25;;;-147.06;37.55
21594;BME280;10959;51.328;7.322;2023-05-29T10:37:07;73659.34;;;-147.06;37.43
21594;BME280;10959;51.328;7.322;2023-05-29T10:39:35;73663.47;;;-147.06;37.75
21594;BME280;10959;51.328;7.322;2023-05-29T10:42:01;73638.88;;;-147.06;37.50
21594;BME280;10959;51.328;7.322;2023-05-29T10:44:39;73618.41;;;-147.06;37.52
21594;BME280;10959;51.328;7.322;2023-05-29T10:47:11;73620.44;;;-147.06;37.17
21594;BME280;10959;51.328;7.322;2023-05-29T10:49:38;73577.44;;;-147.06;37.38
21594;BME280;10959;51.328;7.322;2023-05-29T10:52:10;73561.03;;;-147.06;36.29
21594;BME280;10959;51.328;7.322;2023-05-29T10:54:41;73589.72;;;-147.06;36.62
21594;BME280;10959;51.328;7.322;2023-05-29T10:57:16;73583.56;;;-147.06;36.85
21594;BME280;10959;51.328;7.322;2023-05-29T10:59:44;73622.50;;;-147.06;36.81
21594;BME280;10959;51.328;7.322;2023-05-29T11:02:17;73616.34;;;-147.06;37.32
21594;BME280;10959;51.328;7.322;2023-05-29T11:04:43;73642.97;;;-147.06;37.24
21594;BME280;10959;51.328;7.322;2023-05-29T11:07:33;73647.06;;;-147.06;37.08
21594;BME280;10959;51.328;7.322;2023-05-29T11:10:12;73606.09;;;-147.06;36.78
21594;BME280;10959;51.328;7.322;2023-05-29T11:12:55;73618.41;;;-147.06;36.11
21594;BME280;10959;51.328;7.322;2023-05-29T11:15:24;73614.28;;;-147.06;36.59
21594;BME280;10959;51.328;7.322;2023-05-29T11:17:51;73610.19;;;-147.06;36.98
21594;BME280;10959;51.328;7.322;2023-05-29T11:20:28;73634.78;;;-147.06;36.81
21594;BME280;10959;51.328;7.322;2023-05-29T11:23:02;73630.69;;;-147.06;37.03
21594;BME280;10959;51.328;7.322;2023-05-29T11:25:29;73645.03;;;-147.06;37.26
21594;BME280;10959;51.328;7.322;2023-05-29T11:27:59;73604.06;;;-147.06;37.24
21594;BME280;10959;51.328;7.322;2023-05-29T11:30:25;73556.94;;;-147.06;36.82
21594;BME280;10959;51.328;7.322;2023-05-29T11:32:53;73573.31;;;-147.06;37.47
21594;BME280;10959;51.328;7.322;2023-05-29T11:35:21;73538.50;;;-147.06;36.73
21594;BME280;10959;51.328;7.322;2023-05-29T11:37:48;73515.97;;;-147.06;36.73
21594;BME280;10959;51.328;7.322;2023-05-29T11:40:15;73587.66;;;-147.06;36.40
21594;BME280;10959;51.328;7.322;2023-05-29T11:42:44;73610.19;;;-147.06;37.43
21594;BME280;10959;51.328;7.322;2023-05-29T11:45:12;73624.53;;;-147.06;37.00
21594;BME280;10959;51.328;7.322;2023-05-29T11:47:53;73661.41;;;-147.06;37.25
21594;BME280;10959;51.328;7.322;2023-05-29T11:50:20;73602.00;;;-147.06;36.99
21594;BME280;10959;51.328;7.322;2023-05-29T11:52:47;73573.31;;;-147.06;36.82
21594;BME280;10959;51.328;7.322;2023-05-29T11:55:14;73569.22;;;-147.06;36.27
21594;BME280;10959;51.328;7.322;2023-05-29T11:57:40;73655.25;;;-147.06;36.87
21594;BME280;10959;51.328;7.322;2023-05-29T12:00:08;73614.28;;;-147.06;37.31
21594;BME280;10959;51.328;7.322;2023-05-29T12:02:35;73602.00;;;-147.06;36.81
21594;BME280;10959;51.328;7.322;2023-05-29T12:05:04;73565.13;;;-147.06;37.32
21594;BME280;10959;51.328;7.322;2023-05-29T12:07:32;73524.16;;;-147.06;36.94
21594;BME280;10959;51.328;7.322;2023-05-29T12:10:08;73577.44;;;-147.06;35.96
21594;BME280;10959;51.328;7.322;2023-05-29T12:12:35;73569.22;;;-147.06;36.57
21594;BME280;10959;51.328;7.322;2023-05-29T12:15:02;73573.31;;;-147.06;36.25
21594;BME280;10959;51.328;7.322;2023-05-29T12:17:30;73589.72;;;-147.06;36.55
21594;BME280;10959;51.328;7.322;2023-05-29T12:19:57;73585.63;;;-147.06;36.54
21594;BME280;10959;51.328;7.322;2023-05-29T12:22:32;73642.97;;;-147.06;36.63
21594;BME280;10959;51.328;7.322;2023-05-29T12:25:04;73618.41;;;-147.06;37.38
21594;BME280;10959;51.328;7.322;2023-05-29T12:27:32;73565.13;;;-147.06;36.84
21594;BME280;10959;51.328;7.322;2023-05-29T12:30:03;73589.72;;;-147.06;36.07
21594;BME280;10959;51.328;7.322;2023-05-29T12:32:34;73581.53;;;-147.06;36.09
21594;BME280;10959;51.328;7.322;2023-05-29T12:35:01;73577.44;;;-147.06;36.80
21594;BME280;10959;51.328;7.322;2023-05-29T12:37:31;73552.84;;;-147.06;36.44
21594;BME280;10959;51.328;7.322;2023-05-29T12:40:13;73602.00;;;-147.06;36.56
21594;BME280;10959;51.328;7.322;2023-05-29T12:42:40;73597.91;;;-147.06;36.91
21594;BME280;10959;51.328;7.322;2023-05-29T12:45:07;73655.25;;;-147.06;37.48
21594;BME280;10959;51.328;7.322;2023-05-29T12:47:34;73634.78;;;-147.06;37.08
21594;BME280;10959;51.328;7.322;2023-05-29T12:50:18;73602.00;;;-147.06;37.27